Kennebec, South Dakota
Current Conditions -  °F | °C
As of 9:55 AM on Friday 31 Oct 2014 (Local Time) from K9V9 Reporting Station
Clear Clear  
Wind Chill: -5°   Ceiling: Unl
Heat Index: -5°   Visibility: 10mi
Dew Point: -7°   Wind: 0mph
Humidity: 87%   Direction: NA
Pressure: 30.58"   Gusts: NA
Location:  43.9°N, 99.86°W
Report Text: K9V9 311455Z AUTO 00000KT 10SM CLR M05/M07 A3058 RMK AO2 T10501069
Loading
Personal Weather Stations






























Interactive Weather Map
Tropical Storm Tracking
New forecast layout! Learn more

10-Day Weather Forecast

Advertisements
Track Severe Weather on mobile